sensor_id;sensor_type;location;lat;lon;timestamp;P1;durP1;ratioP1;P2;durP2;ratioP2
66970;SDS011;53901;51.466;-2.588;2022-12-18T00:01:44;24.10;;;12.65;;
66970;SDS011;53901;51.466;-2.588;2022-12-18T00:04:27;27.48;;;13.95;;
66970;SDS011;53901;51.466;-2.588;2022-12-18T00:06:54;25.80;;;13.20;;
66970;SDS011;53901;51.466;-2.588;2022-12-18T00:09:20;25.48;;;12.05;;
66970;SDS011;53901;51.466;-2.588;2022-12-18T00:11:45;28.10;;;12.73;;
66970;SDS011;53901;51.466;-2.588;2022-12-18T00:14:12;29.83;;;14.50;;
66970;SDS011;53901;51.466;-2.588;2022-12-18T00:16:38;33.47;;;13.10;;
66970;SDS011;53901;51.466;-2.588;2022-12-18T00:19:04;32.85;;;15.23;;
66970;SDS011;53901;51.466;-2.588;2022-12-18T00:21:31;27.73;;;14.27;;
66970;SDS011;53901;51.466;-2.588;2022-12-18T00:23:57;28.95;;;12.77;;
66970;SDS011;53901;51.466;-2.588;2022-12-18T00:26:24;27.20;;;11.75;;
66970;SDS011;53901;51.466;-2.588;2022-12-18T00:28:52;31.20;;;12.73;;
66970;SDS011;53901;51.466;-2.588;2022-12-18T00:31:19;22.48;;;11.55;;
66970;SDS011;53901;51.466;-2.588;2022-12-18T00:33:46;21.05;;;10.85;;
66970;SDS011;53901;51.466;-2.588;2022-12-18T00:36:16;23.13;;;10.75;;
66970;SDS011;53901;51.466;-2.588;2022-12-18T00:38:43;29.10;;;11.75;;
66970;SDS011;53901;51.466;-2.588;2022-12-18T00:41:09;20.83;;;10.80;;
66970;SDS011;53901;51.466;-2.588;2022-12-18T00:43:35;22.58;;;11.15;;
66970;SDS011;53901;51.466;-2.588;2022-12-18T00:46:04;20.73;;;9.48;;
66970;SDS011;53901;51.466;-2.588;2022-12-18T00:48:33;21.63;;;10.98;;
66970;SDS011;53901;51.466;-2.588;2022-12-18T00:50:58;20.92;;;10.90;;
66970;SDS011;53901;51.466;-2.588;2022-12-18T00:53:24;19.85;;;10.02;;
66970;SDS011;53901;51.466;-2.588;2022-12-18T00:55:49;19.17;;;9.88;;
66970;SDS011;53901;51.466;-2.588;2022-12-18T00:58:15;22.25;;;10.25;;
66970;SDS011;53901;51.466;-2.588;2022-12-18T01:00:41;26.08;;;13.25;;
66970;SDS011;53901;51.466;-2.588;2022-12-18T01:03:07;24.30;;;12.20;;
66970;SDS011;53901;51.466;-2.588;2022-12-18T01:05:38;28.40;;;13.50;;
66970;SDS011;53901;51.466;-2.588;2022-12-18T01:08:05;27.90;;;13.23;;
66970;SDS011;53901;51.466;-2.588;2022-12-18T01:10:30;34.55;;;14.30;;
66970;SDS011;53901;51.466;-2.588;2022-12-18T01:12:55;30.88;;;14.90;;
66970;SDS011;53901;51.466;-2.588;2022-12-18T01:15:21;30.10;;;13.90;;
66970;SDS011;53901;51.466;-2.588;2022-12-18T01:17:46;29.85;;;14.00;;
66970;SDS011;53901;51.466;-2.588;2022-12-18T01:20:12;34.58;;;15.65;;
66970;SDS011;53901;51.466;-2.588;2022-12-18T01:22:38;32.05;;;15.68;;
66970;SDS011;53901;51.466;-2.588;2022-12-18T01:25:03;35.47;;;14.63;;
66970;SDS011;53901;51.466;-2.588;2022-12-18T01:27:29;36.33;;;14.13;;
66970;SDS011;53901;51.466;-2.588;2022-12-18T01:29:55;25.70;;;13.57;;
66970;SDS011;53901;51.466;-2.588;2022-12-18T01:32:20;25.98;;;12.77;;
66970;SDS011;53901;51.466;-2.588;2022-12-18T01:34:47;27.02;;;12.93;;
66970;SDS011;53901;51.466;-2.588;2022-12-18T01:37:12;25.73;;;11.90;;
66970;SDS011;53901;51.466;-2.588;2022-12-18T01:39:37;29.02;;;12.23;;
66970;SDS011;53901;51.466;-2.588;2022-12-18T01:42:03;23.05;;;11.48;;
66970;SDS011;53901;51.466;-2.588;2022-12-18T01:52:39;20.10;;;9.65;;
66970;SDS011;53901;51.466;-2.588;2022-12-18T01:55:07;19.60;;;9.57;;
66970;SDS011;53901;51.466;-2.588;2022-12-18T01:57:33;19.88;;;10.40;;
66970;SDS011;53901;51.466;-2.588;2022-12-18T02:00:00;20.95;;;10.15;;
66970;SDS011;53901;51.466;-2.588;2022-12-18T02:02:29;19.92;;;10.15;;
66970;SDS011;53901;51.466;-2.588;2022-12-18T02:04:55;23.08;;;10.95;;
66970;SDS011;53901;51.466;-2.588;2022-12-18T02:10:25;18.42;;;9.77;;
66970;SDS011;53901;51.466;-2.588;2022-12-18T02:12:56;19.42;;;9.73;;
66970;SDS011;53901;51.466;-2.588;2022-12-18T02:15:25;21.42;;;9.65;;
66970;SDS011;53901;51.466;-2.588;2022-12-18T02:18:07;24.05;;;10.70;;
66970;SDS011;53901;51.466;-2.588;2022-12-18T02:28:45;24.45;;;10.77;;
66970;SDS011;53901;51.466;-2.588;2022-12-18T02:31:14;22.25;;;10.48;;
66970;SDS011;53901;51.466;-2.588;2022-12-18T02:33:43;22.42;;;10.57;;
66970;SDS011;53901;51.466;-2.588;2022-12-18T02:36:10;33.05;;;14.65;;
66970;SDS011;53901;51.466;-2.588;2022-12-18T02:38:38;40.17;;;15.75;;
66970;SDS011;53901;51.466;-2.588;2022-12-18T02:41:04;34.30;;;15.25;;
66970;SDS011;53901;51.466;-2.588;2022-12-18T02:43:30;31.48;;;14.70;;
66970;SDS011;53901;51.466;-2.588;2022-12-18T02:45:57;25.90;;;12.68;;
66970;SDS011;53901;51.466;-2.588;2022-12-18T02:48:24;24.85;;;12.50;;
66970;SDS011;53901;51.466;-2.588;2022-12-18T02:51:00;25.30;;;11.95;;
66970;SDS011;53901;51.466;-2.588;2022-12-18T02:58:46;22.83;;;9.68;;
66970;SDS011;53901;51.466;-2.588;2022-12-18T03:01:38;19.55;;;9.57;;
66970;SDS011;53901;51.466;-2.588;2022-12-18T03:04:19;26.80;;;10.48;;
66970;SDS011;53901;51.466;-2.588;2022-12-18T03:06:49;17.50;;;9.05;;
66970;SDS011;53901;51.466;-2.588;2022-12-18T03:09:21;21.23;;;8.82;;
66970;SDS011;53901;51.466;-2.588;2022-12-18T03:11:51;21.20;;;8.95;;
66970;SDS011;53901;51.466;-2.588;2022-12-18T03:14:38;16.33;;;7.60;;
66970;SDS011;53901;51.466;-2.588;2022-12-18T03:17:05;18.70;;;9.00;;
66970;SDS011;53901;51.466;-2.588;2022-12-18T03:19:39;17.77;;;8.15;;
66970;SDS011;53901;51.466;-2.588;2022-12-18T03:22:05;22.35;;;9.57;;
66970;SDS011;53901;51.466;-2.588;2022-12-18T03:24:32;15.50;;;8.23;;
66970;SDS011;53901;51.466;-2.588;2022-12-18T03:27:00;20.17;;;8.60;;
66970;SDS011;53901;51.466;-2.588;2022-12-18T03:31:55;17.63;;;8.23;;
66970;SDS011;53901;51.466;-2.588;2022-12-18T03:34:26;23.35;;;7.95;;
66970;SDS011;53901;51.466;-2.588;2022-12-18T03:36:54;17.95;;;7.82;;
66970;SDS011;53901;51.466;-2.588;2022-12-18T03:39:19;17.20;;;8.23;;
66970;SDS011;53901;51.466;-2.588;2022-12-18T03:44:52;15.20;;;8.13;;
66970;SDS011;53901;51.466;-2.588;2022-12-18T03:47:34;17.42;;;8.02;;
66970;SDS011;53901;51.466;-2.588;2022-12-18T03:52:52;16.92;;;7.43;;
66970;SDS011;53901;51.466;-2.588;2022-12-18T03:55:22;16.02;;;7.05;;
66970;SDS011;53901;51.466;-2.588;2022-12-18T03:57:48;15.73;;;7.43;;
66970;SDS011;53901;51.466;-2.588;2022-12-18T04:00:14;16.58;;;6.80;;
66970;SDS011;53901;51.466;-2.588;2022-12-18T04:02:43;15.48;;;8.10;;
66970;SDS011;53901;51.466;-2.588;2022-12-18T04:05:11;17.40;;;7.97;;
66970;SDS011;53901;51.466;-2.588;2022-12-18T04:07:37;15.18;;;8.00;;
66970;SDS011;53901;51.466;-2.588;2022-12-18T04:10:03;18.63;;;7.90;;
66970;SDS011;53901;51.466;-2.588;2022-12-18T04:12:31;22.13;;;8.25;;
66970;SDS011;53901;51.466;-2.588;2022-12-18T04:14:56;15.38;;;7.78;;
66970;SDS011;53901;51.466;-2.588;2022-12-18T04:17:22;17.20;;;8.07;;
66970;SDS011;53901;51.466;-2.588;2022-12-18T04:19:47;13.43;;;7.40;;
66970;SDS011;53901;51.466;-2.588;2022-12-18T04:22:13;18.38;;;8.25;;
66970;SDS011;53901;51.466;-2.588;2022-12-18T04:24:38;16.35;;;7.95;;
66970;SDS011;53901;51.466;-2.588;2022-12-18T04:27:04;18.85;;;8.27;;
66970;SDS011;53901;51.466;-2.588;2022-12-18T04:29:30;18.60;;;7.88;;
66970;SDS011;53901;51.466;-2.588;2022-12-18T04:31:55;15.52;;;7.93;;
66970;SDS011;53901;51.466;-2.588;2022-12-18T04:34:21;15.65;;;8.55;;
66970;SDS011;53901;51.466;-2.588;2022-12-18T04:36:46;19.85;;;8.85;;
66970;SDS011;53901;51.466;-2.588;2022-12-18T04:39:20;19.98;;;8.85;;
66970;SDS011;53901;51.466;-2.588;2022-12-18T04:42:09;16.13;;;7.97;;
66970;SDS011;53901;51.466;-2.588;2022-12-18T04:44:34;19.95;;;7.55;;
66970;SDS011;53901;51.466;-2.588;2022-12-18T04:47:02;17.77;;;9.10;;
66970;SDS011;53901;51.466;-2.588;2022-12-18T04:49:27;18.27;;;8.80;;
66970;SDS011;53901;51.466;-2.588;2022-12-18T04:51:53;19.38;;;8.88;;
66970;SDS011;53901;51.466;-2.588;2022-12-18T04:54:18;19.77;;;9.05;;
66970;SDS011;53901;51.466;-2.588;2022-12-18T04:56:44;21.35;;;9.77;;
66970;SDS011;53901;51.466;-2.588;2022-12-18T04:59:09;21.30;;;10.10;;
66970;SDS011;53901;51.466;-2.588;2022-12-18T05:01:34;20.27;;;9.15;;
66970;SDS011;53901;51.466;-2.588;2022-12-18T05:04:00;19.33;;;9.18;;
66970;SDS011;53901;51.466;-2.588;2022-12-18T05:06:26;21.13;;;10.43;;
66970;SDS011;53901;51.466;-2.588;2022-12-18T05:08:51;17.92;;;9.10;;
66970;SDS011;53901;51.466;-2.588;2022-12-18T05:11:17;20.45;;;9.15;;
66970;SDS011;53901;51.466;-2.588;2022-12-18T05:13:43;21.00;;;9.38;;
66970;SDS011;53901;51.466;-2.588;2022-12-18T05:16:09;19.38;;;10.25;;
66970;SDS011;53901;51.466;-2.588;2022-12-18T05:18:35;22.65;;;10.13;;
66970;SDS011;53901;51.466;-2.588;2022-12-18T05:21:00;21.48;;;9.27;;
66970;SDS011;53901;51.466;-2.588;2022-12-18T05:23:26;19.92;;;8.90;;
66970;SDS011;53901;51.466;-2.588;2022-12-18T05:28:18;20.20;;;9.77;;
66970;SDS011;53901;51.466;-2.588;2022-12-18T05:30:50;20.88;;;9.95;;
66970;SDS011;53901;51.466;-2.588;2022-12-18T05:33:17;23.35;;;10.63;;
66970;SDS011;53901;51.466;-2.588;2022-12-18T05:35:43;25.48;;;10.02;;
66970;SDS011;53901;51.466;-2.588;2022-12-18T05:38:09;23.73;;;10.57;;
66970;SDS011;53901;51.466;-2.588;2022-12-18T05:40:34;27.27;;;10.35;;
66970;SDS011;53901;51.466;-2.588;2022-12-18T05:42:59;19.10;;;10.05;;
66970;SDS011;53901;51.466;-2.588;2022-12-18T05:45:25;19.10;;;9.63;;
66970;SDS011;53901;51.466;-2.588;2022-12-18T05:47:50;25.30;;;10.15;;
66970;SDS011;53901;51.466;-2.588;2022-12-18T05:50:16;22.45;;;9.38;;
66970;SDS011;53901;51.466;-2.588;2022-12-18T05:52:41;23.67;;;10.40;;
66970;SDS011;53901;51.466;-2.588;2022-12-18T05:55:06;24.55;;;10.65;;
66970;SDS011;53901;51.466;-2.588;2022-12-18T05:57:32;24.05;;;9.35;;
66970;SDS011;53901;51.466;-2.588;2022-12-18T05:59:57;23.85;;;10.95;;
66970;SDS011;53901;51.466;-2.588;2022-12-18T06:02:23;22.02;;;9.93;;
66970;SDS011;53901;51.466;-2.588;2022-12-18T06:04:48;23.95;;;10.57;;
66970;SDS011;53901;51.466;-2.588;2022-12-18T06:07:13;20.33;;;10.02;;
66970;SDS011;53901;51.466;-2.588;2022-12-18T06:09:39;25.67;;;11.25;;
66970;SDS011;53901;51.466;-2.588;2022-12-18T06:12:04;23.95;;;10.38;;
66970;SDS011;53901;51.466;-2.588;2022-12-18T06:14:30;27.10;;;11.80;;
66970;SDS011;53901;51.466;-2.588;2022-12-18T06:16:55;25.63;;;10.95;;
66970;SDS011;53901;51.466;-2.588;2022-12-18T06:19:21;26.52;;;11.52;;
66970;SDS011;53901;51.466;-2.588;2022-12-18T06:21:46;26.90;;;10.73;;
66970;SDS011;53901;51.466;-2.588;2022-12-18T06:24:11;23.08;;;10.45;;
66970;SDS011;53901;51.466;-2.588;2022-12-18T06:26:37;29.75;;;12.07;;
66970;SDS011;53901;51.466;-2.588;2022-12-18T06:29:03;24.98;;;11.68;;
66970;SDS011;53901;51.466;-2.588;2022-12-18T06:31:29;26.98;;;11.18;;
66970;SDS011;53901;51.466;-2.588;2022-12-18T06:33:54;28.45;;;11.57;;
66970;SDS011;53901;51.466;-2.588;2022-12-18T06:36:20;22.55;;;11.13;;
66970;SDS011;53901;51.466;-2.588;2022-12-18T06:38:46;31.27;;;11.82;;
66970;SDS011;53901;51.466;-2.588;2022-12-18T06:41:19;25.15;;;11.52;;
66970;SDS011;53901;51.466;-2.588;2022-12-18T06:43:45;28.52;;;11.95;;
66970;SDS011;53901;51.466;-2.588;2022-12-18T06:46:11;25.92;;;11.93;;
66970;SDS011;53901;51.466;-2.588;2022-12-18T06:48:37;27.85;;;11.98;;
66970;SDS011;53901;51.466;-2.588;2022-12-18T06:51:02;25.73;;;11.43;;
66970;SDS011;53901;51.466;-2.588;2022-12-18T06:53:28;27.17;;;11.68;;
66970;SDS011;53901;51.466;-2.588;2022-12-18T06:55:59;26.08;;;10.80;;
66970;SDS011;53901;51.466;-2.588;2022-12-18T06:58:25;25.00;;;11.45;;
66970;SDS011;53901;51.466;-2.588;2022-12-18T07:00:52;23.00;;;11.13;;
66970;SDS011;53901;51.466;-2.588;2022-12-18T07:03:17;24.23;;;11.35;;
66970;SDS011;53901;51.466;-2.588;2022-12-18T07:05:42;24.75;;;12.43;;
66970;SDS011;53901;51.466;-2.588;2022-12-18T07:08:07;23.08;;;11.25;;
66970;SDS011;53901;51.466;-2.588;2022-12-18T07:10:33;24.52;;;12.10;;
66970;SDS011;53901;51.466;-2.588;2022-12-18T07:12:58;25.10;;;11.40;;
66970;SDS011;53901;51.466;-2.588;2022-12-18T07:15:24;27.23;;;11.88;;
66970;SDS011;53901;51.466;-2.588;2022-12-18T07:17:49;26.58;;;12.73;;
66970;SDS011;53901;51.466;-2.588;2022-12-18T07:20:14;28.30;;;11.95;;
66970;SDS011;53901;51.466;-2.588;2022-12-18T07:22:40;26.38;;;11.98;;
66970;SDS011;53901;51.466;-2.588;2022-12-18T07:25:05;28.15;;;12.20;;
66970;SDS011;53901;51.466;-2.588;2022-12-18T07:27:31;30.45;;;12.90;;
66970;SDS011;53901;51.466;-2.588;2022-12-18T07:29:57;30.45;;;13.10;;
66970;SDS011;53901;51.466;-2.588;2022-12-18T07:32:22;22.58;;;11.43;;
66970;SDS011;53901;51.466;-2.588;2022-12-18T07:34:47;25.13;;;11.63;;
66970;SDS011;53901;51.466;-2.588;2022-12-18T07:37:13;24.15;;;10.60;;
66970;SDS011;53901;51.466;-2.588;2022-12-18T07:39:38;30.02;;;11.77;;
66970;SDS011;53901;51.466;-2.588;2022-12-18T07:42:03;28.52;;;12.20;;
66970;SDS011;53901;51.466;-2.588;2022-12-18T07:44:47;25.60;;;11.63;;
66970;SDS011;53901;51.466;-2.588;2022-12-18T07:47:13;26.25;;;12.65;;
66970;SDS011;53901;51.466;-2.588;2022-12-18T07:49:38;27.73;;;11.85;;
66970;SDS011;53901;51.466;-2.588;2022-12-18T07:52:04;23.25;;;11.70;;
66970;SDS011;53901;51.466;-2.588;2022-12-18T07:54:29;27.13;;;11.85;;
66970;SDS011;53901;51.466;-2.588;2022-12-18T07:56:55;22.75;;;10.95;;
66970;SDS011;53901;51.466;-2.588;2022-12-18T07:59:20;24.35;;;11.98;;
66970;SDS011;53901;51.466;-2.588;2022-12-18T08:01:45;24.30;;;11.05;;
66970;SDS011;53901;51.466;-2.588;2022-12-18T08:04:11;22.50;;;11.52;;
66970;SDS011;53901;51.466;-2.588;2022-12-18T08:06:36;24.33;;;10.38;;
66970;SDS011;53901;51.466;-2.588;2022-12-18T08:09:02;31.27;;;10.90;;
66970;SDS011;53901;51.466;-2.588;2022-12-18T08:11:27;23.17;;;11.32;;
66970;SDS011;53901;51.466;-2.588;2022-12-18T08:13:54;25.90;;;10.20;;
66970;SDS011;53901;51.466;-2.588;2022-12-18T08:16:19;26.02;;;11.00;;
66970;SDS011;53901;51.466;-2.588;2022-12-18T08:18:45;25.42;;;11.68;;
66970;SDS011;53901;51.466;-2.588;2022-12-18T08:21:21;25.08;;;11.07;;
66970;SDS011;53901;51.466;-2.588;2022-12-18T08:23:52;22.00;;;10.73;;
66970;SDS011;53901;51.466;-2.588;2022-12-18T08:26:18;22.60;;;9.27;;
66970;SDS011;53901;51.466;-2.588;2022-12-18T08:28:44;26.45;;;11.50;;
66970;SDS011;53901;51.466;-2.588;2022-12-18T08:31:10;24.23;;;10.73;;
66970;SDS011;53901;51.466;-2.588;2022-12-18T08:33:37;27.02;;;10.35;;
66970;SDS011;53901;51.466;-2.588;2022-12-18T08:36:04;21.30;;;9.55;;
66970;SDS011;53901;51.466;-2.588;2022-12-18T08:38:30;24.58;;;10.10;;
66970;SDS011;53901;51.466;-2.588;2022-12-18T08:41:06;22.52;;;9.85;;
66970;SDS011;53901;51.466;-2.588;2022-12-18T08:43:37;22.75;;;10.18;;
66970;SDS011;53901;51.466;-2.588;2022-12-18T08:46:21;26.23;;;10.50;;
66970;SDS011;53901;51.466;-2.588;2022-12-18T08:48:47;21.70;;;9.23;;
66970;SDS011;53901;51.466;-2.588;2022-12-18T08:51:18;24.95;;;9.93;;
66970;SDS011;53901;51.466;-2.588;2022-12-18T08:53:44;22.35;;;9.45;;
66970;SDS011;53901;51.466;-2.588;2022-12-18T08:56:10;19.83;;;9.23;;
66970;SDS011;53901;51.466;-2.588;2022-12-18T08:58:35;25.27;;;7.95;;
66970;SDS011;53901;51.466;-2.588;2022-12-18T09:01:04;26.75;;;11.07;;
66970;SDS011;53901;51.466;-2.588;2022-12-18T09:03:31;22.25;;;9.27;;
66970;SDS011;53901;51.466;-2.588;2022-12-18T09:05:57;27.58;;;9.13;;
66970;SDS011;53901;51.466;-2.588;2022-12-18T09:08:22;26.42;;;10.80;;
66970;SDS011;53901;51.466;-2.588;2022-12-18T09:10:48;23.88;;;9.90;;
66970;SDS011;53901;51.466;-2.588;2022-12-18T09:13:15;19.42;;;8.70;;
66970;SDS011;53901;51.466;-2.588;2022-12-18T09:15:51;15.15;;;8.38;;
66970;SDS011;53901;51.466;-2.588;2022-12-18T09:18:18;21.83;;;7.45;;
66970;SDS011;53901;51.466;-2.588;2022-12-18T09:20:45;29.33;;;12.80;;
66970;SDS011;53901;51.466;-2.588;2022-12-18T09:23:10;44.30;;;18.10;;
66970;SDS011;53901;51.466;-2.588;2022-12-18T09:25:36;26.25;;;11.18;;
66970;SDS011;53901;51.466;-2.588;2022-12-18T09:28:03;22.23;;;9.60;;
66970;SDS011;53901;51.466;-2.588;2022-12-18T09:30:30;21.08;;;11.48;;
66970;SDS011;53901;51.466;-2.588;2022-12-18T09:32:58;20.13;;;10.27;;
66970;SDS011;53901;51.466;-2.588;2022-12-18T09:35:23;21.92;;;9.77;;
66970;SDS011;53901;51.466;-2.588;2022-12-18T09:37:49;22.83;;;11.15;;
66970;SDS011;53901;51.466;-2.588;2022-12-18T09:40:15;25.17;;;10.27;;
66970;SDS011;53901;51.466;-2.588;2022-12-18T09:42:43;21.58;;;11.00;;
66970;SDS011;53901;51.466;-2.588;2022-12-18T09:45:12;19.45;;;8.13;;
66970;SDS011;53901;51.466;-2.588;2022-12-18T09:47:39;21.70;;;9.70;;
66970;SDS011;53901;51.466;-2.588;2022-12-18T09:50:07;17.48;;;7.50;;
66970;SDS011;53901;51.466;-2.588;2022-12-18T09:52:47;22.67;;;8.88;;
66970;SDS011;53901;51.466;-2.588;2022-12-18T09:57:57;21.08;;;9.40;;
66970;SDS011;53901;51.466;-2.588;2022-12-18T10:00:28;22.23;;;10.07;;
66970;SDS011;53901;51.466;-2.588;2022-12-18T10:02:56;22.13;;;10.05;;
66970;SDS011;53901;51.466;-2.588;2022-12-18T10:05:40;16.90;;;9.07;;
66970;SDS011;53901;51.466;-2.588;2022-12-18T10:08:13;18.27;;;8.20;;
66970;SDS011;53901;51.466;-2.588;2022-12-18T10:11:01;22.25;;;8.27;;
66970;SDS011;53901;51.466;-2.588;2022-12-18T10:24:35;22.42;;;9.80;;
66970;SDS011;53901;51.466;-2.588;2022-12-18T10:27:12;14.82;;;7.90;;
66970;SDS011;53901;51.466;-2.588;2022-12-18T10:29:40;32.85;;;19.45;;
66970;SDS011;53901;51.466;-2.588;2022-12-18T10:32:07;19.00;;;11.23;;
66970;SDS011;53901;51.466;-2.588;2022-12-18T10:34:32;17.10;;;7.95;;
66970;SDS011;53901;51.466;-2.588;2022-12-18T10:36:59;16.80;;;7.57;;
66970;SDS011;53901;51.466;-2.588;2022-12-18T10:39:25;22.70;;;10.02;;
66970;SDS011;53901;51.466;-2.588;2022-12-18T10:41:51;21.25;;;8.82;;
66970;SDS011;53901;51.466;-2.588;2022-12-18T10:44:18;27.67;;;11.23;;
66970;SDS011;53901;51.466;-2.588;2022-12-18T10:46:49;25.08;;;11.63;;
66970;SDS011;53901;51.466;-2.588;2022-12-18T10:49:25;26.70;;;11.02;;
66970;SDS011;53901;51.466;-2.588;2022-12-18T10:54:50;18.52;;;9.07;;
66970;SDS011;53901;51.466;-2.588;2022-12-18T10:57:36;25.33;;;11.60;;
66970;SDS011;53901;51.466;-2.588;2022-12-18T11:02:48;25.50;;;12.32;;
66970;SDS011;53901;51.466;-2.588;2022-12-18T11:05:24;20.45;;;9.77;;
66970;SDS011;53901;51.466;-2.588;2022-12-18T11:07:54;25.13;;;11.50;;
66970;SDS011;53901;51.466;-2.588;2022-12-18T11:10:21;26.00;;;11.80;;
66970;SDS011;53901;51.466;-2.588;2022-12-18T11:12:51;45.92;;;20.60;;
66970;SDS011;53901;51.466;-2.588;2022-12-18T11:15:27;44.92;;;17.85;;
66970;SDS011;53901;51.466;-2.588;2022-12-18T11:17:55;18.15;;;9.05;;
66970;SDS011;53901;51.466;-2.588;2022-12-18T11:20:23;27.98;;;13.10;;
66970;SDS011;53901;51.466;-2.588;2022-12-18T11:23:03;21.02;;;9.45;;
66970;SDS011;53901;51.466;-2.588;2022-12-18T11:25:33;26.92;;;13.23;;
66970;SDS011;53901;51.466;-2.588;2022-12-18T11:27:59;26.63;;;11.52;;
66970;SDS011;53901;51.466;-2.588;2022-12-18T11:30:30;19.98;;;9.73;;
66970;SDS011;53901;51.466;-2.588;2022-12-18T11:33:01;26.75;;;11.45;;
66970;SDS011;53901;51.466;-2.588;2022-12-18T11:38:23;13.88;;;7.03;;
66970;SDS011;53901;51.466;-2.588;2022-12-18T11:40:58;16.27;;;8.23;;
66970;SDS011;53901;51.466;-2.588;2022-12-18T11:43:38;25.38;;;13.02;;
66970;SDS011;53901;51.466;-2.588;2022-12-18T11:46:11;28.38;;;15.02;;
66970;SDS011;53901;51.466;-2.588;2022-12-18T11:49:06;30.10;;;14.55;;
66970;SDS011;53901;51.466;-2.588;2022-12-18T11:54:30;34.95;;;13.07;;
66970;SDS011;53901;51.466;-2.588;2022-12-18T12:05:05;29.38;;;14.27;;
66970;SDS011;53901;51.466;-2.588;2022-12-18T12:07:45;30.90;;;13.07;;
66970;SDS011;53901;51.466;-2.588;2022-12-18T12:19:27;30.17;;;13.38;;
66970;SDS011;53901;51.466;-2.588;2022-12-18T12:21:40;26.80;;;14.55;;
66970;SDS011;53901;51.466;-2.588;2022-12-18T12:24:18;23.58;;;10.25;;
66970;SDS011;53901;51.466;-2.588;2022-12-18T12:32:38;24.30;;;12.77;;
66970;SDS011;53901;51.466;-2.588;2022-12-18T12:35:29;17.13;;;9.15;;
66970;SDS011;53901;51.466;-2.588;2022-12-18T12:40:39;22.90;;;10.18;;
66970;SDS011;53901;51.466;-2.588;2022-12-18T12:43:29;18.15;;;9.48;;
66970;SDS011;53901;51.466;-2.588;2022-12-18T12:46:05;13.98;;;7.30;;
66970;SDS011;53901;51.466;-2.588;2022-12-18T12:53:49;17.75;;;8.80;;
66970;SDS011;53901;51.466;-2.588;2022-12-18T12:56:16;10.57;;;5.45;;
66970;SDS011;53901;51.466;-2.588;2022-12-18T13:04:07;16.17;;;8.75;;
66970;SDS011;53901;51.466;-2.588;2022-12-18T13:12:51;16.70;;;8.65;;
66970;SDS011;53901;51.466;-2.588;2022-12-18T13:20:34;14.68;;;7.18;;
66970;SDS011;53901;51.466;-2.588;2022-12-18T13:25:48;25.65;;;12.45;;
66970;SDS011;53901;51.466;-2.588;2022-12-18T13:31:58;15.00;;;7.78;;
66970;SDS011;53901;51.466;-2.588;2022-12-18T13:36:48;12.88;;;6.07;;
66970;SDS011;53901;51.466;-2.588;2022-12-18T13:41:43;13.05;;;7.05;;
66970;SDS011;53901;51.466;-2.588;2022-12-18T13:44:52;14.05;;;5.55;;
66970;SDS011;53901;51.466;-2.588;2022-12-18T13:47:26;9.23;;;5.72;;
66970;SDS011;53901;51.466;-2.588;2022-12-18T13:50:08;10.15;;;5.75;;
66970;SDS011;53901;51.466;-2.588;2022-12-18T13:52:46;11.60;;;6.45;;
66970;SDS011;53901;51.466;-2.588;2022-12-18T13:55:21;11.32;;;5.55;;
66970;SDS011;53901;51.466;-2.588;2022-12-18T13:57:50;9.52;;;5.75;;
66970;SDS011;53901;51.466;-2.588;2022-12-18T14:00:33;12.15;;;6.15;;
66970;SDS011;53901;51.466;-2.588;2022-12-18T14:02:59;11.02;;;6.10;;
66970;SDS011;53901;51.466;-2.588;2022-12-18T14:05:25;12.90;;;7.15;;
66970;SDS011;53901;51.466;-2.588;2022-12-18T14:07:55;5.30;;;2.83;;
66970;SDS011;53901;51.466;-2.588;2022-12-18T14:10:25;6.78;;;4.25;;
66970;SDS011;53901;51.466;-2.588;2022-12-18T14:12:51;8.13;;;5.07;;
66970;SDS011;53901;51.466;-2.588;2022-12-18T14:17:51;6.60;;;4.03;;
66970;SDS011;53901;51.466;-2.588;2022-12-18T14:20:18;8.10;;;4.18;;
66970;SDS011;53901;51.466;-2.588;2022-12-18T14:22:45;7.38;;;3.42;;
66970;SDS011;53901;51.466;-2.588;2022-12-18T14:25:25;4.95;;;3.08;;
66970;SDS011;53901;51.466;-2.588;2022-12-18T14:30:36;3.15;;;1.98;;
66970;SDS011;53901;51.466;-2.588;2022-12-18T14:35:30;2.72;;;1.80;;
66970;SDS011;53901;51.466;-2.588;2022-12-18T14:40:42;5.22;;;2.20;;
66970;SDS011;53901;51.466;-2.588;2022-12-18T14:43:11;5.13;;;2.85;;
66970;SDS011;53901;51.466;-2.588;2022-12-18T14:45:37;2.63;;;1.83;;
66970;SDS011;53901;51.466;-2.588;2022-12-18T14:48:16;4.13;;;2.78;;
66970;SDS011;53901;51.466;-2.588;2022-12-18T14:50:43;2.20;;;1.60;;
66970;SDS011;53901;51.466;-2.588;2022-12-18T14:53:19;3.83;;;2.30;;
66970;SDS011;53901;51.466;-2.588;2022-12-18T14:55:46;4.88;;;2.85;;
66970;SDS011;53901;51.466;-2.588;2022-12-18T14:58:13;4.63;;;2.30;;
66970;SDS011;53901;51.466;-2.588;2022-12-18T15:00:41;3.92;;;1.85;;
66970;SDS011;53901;51.466;-2.588;2022-12-18T15:03:07;3.10;;;2.00;;
66970;SDS011;53901;51.466;-2.588;2022-12-18T15:05:33;3.25;;;2.13;;
66970;SDS011;53901;51.466;-2.588;2022-12-18T15:07:59;2.80;;;2.03;;
66970;SDS011;53901;51.466;-2.588;2022-12-18T15:10:28;3.17;;;1.95;;
66970;SDS011;53901;51.466;-2.588;2022-12-18T15:18:01;5.25;;;2.80;;
66970;SDS011;53901;51.466;-2.588;2022-12-18T15:20:32;4.63;;;1.88;;
66970;SDS011;53901;51.466;-2.588;2022-12-18T15:23:04;4.35;;;1.70;;
66970;SDS011;53901;51.466;-2.588;2022-12-18T15:25:34;9.98;;;1.70;;
66970;SDS011;53901;51.466;-2.588;2022-12-18T15:28:02;5.82;;;1.83;;
66970;SDS011;53901;51.466;-2.588;2022-12-18T15:30:28;3.80;;;2.00;;
66970;SDS011;53901;51.466;-2.588;2022-12-18T15:33:16;4.05;;;2.00;;
66970;SDS011;53901;51.466;-2.588;2022-12-18T15:35:45;2.63;;;1.52;;
66970;SDS011;53901;51.466;-2.588;2022-12-18T15:38:11;8.35;;;4.13;;
66970;SDS011;53901;51.466;-2.588;2022-12-18T15:40:36;9.40;;;6.07;;
66970;SDS011;53901;51.466;-2.588;2022-12-18T15:43:01;6.13;;;2.40;;
66970;SDS011;53901;51.466;-2.588;2022-12-18T15:45:48;10.60;;;6.30;;
66970;SDS011;53901;51.466;-2.588;2022-12-18T15:48:19;11.48;;;7.53;;
66970;SDS011;53901;51.466;-2.588;2022-12-18T15:50:46;4.63;;;1.73;;
66970;SDS011;53901;51.466;-2.588;2022-12-18T15:53:11;3.92;;;2.33;;
66970;SDS011;53901;51.466;-2.588;2022-12-18T15:55:37;3.28;;;1.88;;
66970;SDS011;53901;51.466;-2.588;2022-12-18T15:58:21;5.22;;;2.30;;
66970;SDS011;53901;51.466;-2.588;2022-12-18T16:00:46;3.30;;;2.03;;
66970;SDS011;53901;51.466;-2.588;2022-12-18T16:03:12;7.60;;;3.88;;
66970;SDS011;53901;51.466;-2.588;2022-12-18T16:05:37;12.15;;;7.20;;
66970;SDS011;53901;51.466;-2.588;2022-12-18T16:08:03;6.72;;;3.35;;
66970;SDS011;53901;51.466;-2.588;2022-12-18T16:10:28;4.82;;;3.10;;
66970;SDS011;53901;51.466;-2.588;2022-12-18T16:12:53;5.70;;;3.00;;
66970;SDS011;53901;51.466;-2.588;2022-12-18T16:15:19;5.65;;;3.85;;
66970;SDS011;53901;51.466;-2.588;2022-12-18T16:17:45;5.75;;;3.45;;
66970;SDS011;53901;51.466;-2.588;2022-12-18T16:20:12;7.10;;;3.13;;
66970;SDS011;53901;51.466;-2.588;2022-12-18T16:22:43;4.28;;;2.67;;
66970;SDS011;53901;51.466;-2.588;2022-12-18T16:25:16;4.35;;;2.80;;
66970;SDS011;53901;51.466;-2.588;2022-12-18T16:27:44;5.35;;;2.92;;
66970;SDS011;53901;51.466;-2.588;2022-12-18T16:30:16;6.18;;;3.28;;
66970;SDS011;53901;51.466;-2.588;2022-12-18T16:32:46;6.50;;;3.70;;
66970;SDS011;53901;51.466;-2.588;2022-12-18T16:35:12;5.35;;;2.83;;
66970;SDS011;53901;51.466;-2.588;2022-12-18T16:37:39;5.47;;;2.55;;
66970;SDS011;53901;51.466;-2.588;2022-12-18T16:40:06;4.13;;;2.60;;
66970;SDS011;53901;51.466;-2.588;2022-12-18T16:42:34;3.42;;;2.38;;